Flight Track Log - Related Links

Times and Time Zones

All times are in EDT time to prevent confusion due to time zone crossing. See the N7386R flight status page for this flight to view local times or setup timezone preferences in your user account.

Time Position Orientation Groundspeed Altitude Reporting Facility
EDT Latitude Longitude Course Direction KTS MPH feet Rate Location/Type
Wed 07:05:25 PM 34.9667 -89.7833 39° Northeast 100 115 800  Level KMEM
Wed 07:05:58 PM 34.9833 -89.7667 39° Northeast 158 182 1,400 1,161 Climbing KMEM
Wed 07:06:58 PM 35.0000 -89.7500 39° Northeast 128 147 2,600 1,100 Climbing KMEM
Wed 07:07:58 PM 35.0333 -89.7333 22° Northeast 124 143 3,600 700 Climbing KMEM
Wed 07:08:58 PM 35.0667 -89.7500 338° Northwest 128 147 4,000 250 Climbing KMEM
Wed 07:09:58 PM 35.0667 -89.8000 270° West 150 173 4,100 429 Climbing KMEM
Wed 07:11:04 PM 35.0667 -89.8500 270° West 122 140 4,900 661 Climbing KMEM
Wed 07:12:05 PM 35.0667 -89.9000 270° West 124 143 5,500 614 Climbing KMEM
Wed 07:13:11 PM 35.0833 -89.9500 292° West 132 152 6,200 571 Climbing KMEM
Wed 07:14:11 PM 35.0833 -89.9833 270° West 135 155 6,700 545 Climbing KMEM
Wed 07:15:12 PM 35.0833 -90.0333 270° West 133 153 7,300 550 Climbing KMEM
Wed 07:16:00 PM 35.0833 -90.0667 270° West 132 152 7,700 425 Climbing KMEM
Wed 07:17:05 PM 35.0667 -90.1167 248° West 135 155 8,100 149 Climbing KMEM
Wed 07:18:01 PM 35.0833 -90.1667 292° West 162 186 8,000 -50 Descending KMEM
Wed 07:19:05 PM 35.0833 -90.2333 270° West 165 190 8,000  Level KMEM
Wed 07:20:05 PM 35.0833 -90.2833 270° West 168 193 8,000  Level KMEM
Wed 07:21:45 PM 35.0761 -90.3747 265° West 178 205 8,000 38 Level Memphis Center
Wed 07:22:45 PM 35.0803 -90.4331 275° West 178 205 8,100  Climbing Memphis Center
Wed 07:23:45 PM 35.0783 -90.4942 268° West 178 205 8,000 -50 Descending Memphis Center
Wed 07:24:45 PM 35.0803 -90.5500 272° West 173 199 8,000  Level Memphis Center
Wed 07:25:45 PM 35.0803 -90.6033 270° West 163 188 8,000  Level Memphis Center
Wed 07:26:45 PM 35.0822 -90.6592 272° West 163 188 8,000  Level Memphis Center
Wed 07:27:45 PM 35.0819 -90.7147 270° West 163 188 8,000  Level Memphis Center
Wed 07:28:45 PM 35.0817 -90.7733 270° West 158 182 8,000  Level Memphis Center
Wed 07:29:45 PM 35.0817 -90.8264 270° West 158 182 8,000  Level Memphis Center
Wed 07:30:45 PM 35.0833 -90.8822 272° West 158 182 8,000  Level Memphis Center
Wed 07:31:45 PM 35.0833 -90.9406 270° West 163 188 8,000  Level Memphis Center
Wed 07:32:45 PM 35.0831 -90.9939 270° West 163 188 8,000  Level Memphis Center
Wed 07:33:45 PM 35.0869 -91.0500 275° West 163 188 8,000 -50 Level Memphis Center
Wed 07:34:45 PM 35.0822 -91.1081 264° West 168 193 7,900 -55 Descending Memphis Center
Wed 07:35:35 PM 35.0819 -91.1614 270° West 171 197 7,900  Level Memphis Center
Wed 07:36:41 PM 35.0817 -91.2275 270° West 169 194 7,900  Level Memphis Center
Wed 07:37:42 PM 35.0811 -91.2808 269° West 169 194 7,900  Level Memphis Center
Wed 07:38:43 PM 35.0850 -91.3417 274° West 169 194 7,900  Level Memphis Center
Wed 07:39:43 PM 35.0844 -91.4000 269° West 168 193 7,900  Level Memphis Center
Wed 07:40:38 PM 35.0839 -91.4508 269° West 167 192 7,900 50 Level Memphis Center
Wed 07:41:44 PM 35.0856 -91.5117 272° West 178 205 8,000 -283 Climbing Memphis Center
Wed 07:42:45 PM 35.0869 -91.5725 272° West 178 205 7,300 -600 Descending Memphis Center
Wed 07:43:34 PM 35.0844 -91.6208 266° West 183 211 6,900 -661 Descending Memphis Center
Wed 07:44:34 PM 35.0839 -91.6842 269° West 179 206 6,100 -595 Descending Memphis Center
Wed 07:45:45 PM 35.0872 -91.7528 273° West 178 205 5,600 -590 Descending Memphis Center
Wed 07:46:36 PM 35.0825 -91.7983 263° West 170 196 4,900 -649 Descending Memphis Center
Wed 07:47:36 PM 35.0839 -91.8569 272° West 161 185 4,400 -496 Descending Memphis Center
Wed 07:48:37 PM 35.0811 -91.9100 266° West 161 185 3,900 -234 Descending Memphis Center
Wed 07:49:44 PM 35.0867 -91.9686 277° West 155 178 3,900 -248 Level Memphis Center
Wed 07:50:38 PM 35.0819 -92.0142 263° West 154 177 3,400 -522 Descending Memphis Center
Wed 07:51:39 PM 35.0811 -92.0700 269° West 161 185 2,900 -595 Descending Memphis Center
Wed 07:52:39 PM 35.0803 -92.1308 269° West 166 191 2,200 -700 Descending Memphis Center
Wed 07:54:00 PM 35.0667 -92.1965 270° West  Level FlightAware Approximate
Wed 08:01:00 PM 35.0667 -92.4167 270° West  Level FlightAware Approximate
Wed 08:02:00 PM 35.0810 -92.4245 270° West  Level Estimated

Login

Don't have an account? Register now (free) for customized features, flight alerts, and more!